Forside
METAR-TAF:

METAR-TAF

Lufthavne :

Grinnell, Iowa, USA

Breddekreds: 41-42-35N, længdekreds: 092-44-09W, højde: 307 m

Aktuelle vejr

Denne rapport blev lavet for 14 minutter siden, kl. 06:35 UTC
Vind 13 kt fra øst med vindstød på up til 18 kt
Temperatur 9°C
Fugtighed 87%
Tryk 1016 hPa
Sigt: 16.1 km
Brudte skyer i en højde af 6500 ft
Overskyet i en højde af 7500 ft

METAR: KGGI 210635Z AUTO 09013G18KT 10SM BKN065 OVC075 09/07 A3001 RMK AO2 T00930069

Tid: 01:49 (06:49 UTC)


TAF: fraværende

Vejrobservationer og prognoser fra mere end 4000 lufthavne (METAR og TAF).

De gule og røde prikker repræsenterer de meteorologiske stationer.

Flyt musen over at se navnet på stationen.

Så klik over at se vejr observationer og prognoser.

At skifte det kort: Klik på de grønne knapper med et sort kors for at zoome ind; på den grønne knap med en bindestreg for at zoome ud; eller på de grønne pile for tilstødende kort.


METAR-TAF: